Time;durP1;ratioP1;P1;durP2;ratioP2;P2;SDS_P1;SDS_P2;PMS_P1;PMS_P2;Temp;Humidity;BMP_temperature;BMP_pressure;BME280_temperature;BME280_humidity;BME280_pressure;Samples;Min_cycle;Max_cycle;Signal;HPM_P1;HPM_P2
2021/01/10 00:01:14;;;;;;;1.75;1.15;;;;;;;;;;4898351;29;20044;-21
2021/01/10 00:03:41;;;;;;;1.77;1.40;;;;;;;;;;4898234;29;20037;-22
2021/01/10 00:06:06;;;;;;;1.75;0.98;;;;;;;;;;4898726;29;20060;-21
2021/01/10 00:08:32;;;;;;;1.33;1.23;;;;;;;;;;4898617;29;20033;-22
2021/01/10 00:10:57;;;;;;;1.83;1.60;;;;;;;;;;4898212;29;20040;-22
2021/01/10 00:13:22;;;;;;;1.33;0.55;;;;;;;;;;4898257;29;20071;-22
2021/01/10 00:15:48;;;;;;;1.85;1.08;;;;;;;;;;4898089;29;20040;-22
2021/01/10 00:18:13;;;;;;;2.35;1.75;;;;;;;;;;4898199;29;20047;-21
2021/01/10 00:20:39;;;;;;;1.83;1.02;;;;;;;;;;4898385;29;20036;-21
2021/01/10 00:23:04;;;;;;;1.42;0.45;;;;;;;;;;4898351;29;20048;-21
2021/01/10 00:25:30;;;;;;;1.58;1.08;;;;;;;;;;4897992;29;20048;-21
2021/01/10 00:27:55;;;;;;;3.08;1.30;;;;;;;;;;4897801;29;20112;-21
2021/01/10 00:30:21;;;;;;;2.55;1.35;;;;;;;;;;4897922;29;20040;-21
2021/01/10 00:32:48;;;;;;;2.05;1.02;;;;;;;;;;4880964;29;20028;-21
2021/01/10 00:35:13;;;;;;;2.65;0.90;;;;;;;;;;4898186;29;20437;-22
2021/01/10 00:37:38;;;;;;;1.23;1.08;;;;;;;;;;4897710;29;20013;-21
2021/01/10 00:40:04;;;;;;;2.28;1.60;;;;;;;;;;4897783;29;20032;-20
2021/01/10 00:42:29;;;;;;;1.25;1.13;;;;;;;;;;4898030;29;20080;-22
2021/01/10 00:44:55;;;;;;;1.48;1.05;;;;;;;;;;4880700;29;20092;-22
2021/01/10 00:47:22;;;;;;;0.40;0.25;;;;;;;;;;4896458;29;20033;-22
2021/01/10 00:49:48;;;;;;;0.60;0.60;;;;;;;;;;4880651;29;20040;-21
2021/01/10 00:52:14;;;;;;;2.03;1.30;;;;;;;;;;4896260;29;20451;-22
2021/01/10 00:54:41;;;;;;;1.27;0.85;;;;;;;;;;4896250;29;20036;-21
2021/01/10 00:57:08;;;;;;;1.48;1.13;;;;;;;;;;4880683;29;20456;-22
2021/01/10 00:59:33;;;;;;;2.03;1.00;;;;;;;;;;4880654;29;20083;-22
2021/01/10 01:02:01;;;;;;;1.98;0.90;;;;;;;;;;4897753;29;20037;-22
2021/01/10 01:04:26;;;;;;;2.60;0.95;;;;;;;;;;4896059;29;20582;-22
2021/01/10 01:06:52;;;;;;;2.60;1.42;;;;;;;;;;4897547;29;20040;-20
2021/01/10 01:09:19;;;;;;;1.27;1.13;;;;;;;;;;4880481;29;20032;-22
2021/01/10 01:11:44;;;;;;;0.80;0.80;;;;;;;;;;4897540;29;20115;-22
2021/01/10 01:14:10;;;;;;;2.38;0.45;;;;;;;;;;4880431;29;20505;-21
2021/01/10 01:16:37;;;;;;;1.42;0.77;;;;;;;;;;4897104;29;20068;-22
2021/01/10 01:19:03;;;;;;;2.05;1.40;;;;;;;;;;4897297;29;20052;-22
2021/01/10 01:21:28;;;;;;;3.42;1.10;;;;;;;;;;4897196;29;20111;-22
2021/01/10 01:23:54;;;;;;;1.65;0.93;;;;;;;;;;4897143;29;20093;-21
2021/01/10 01:26:23;;;;;;;0.63;0.63;;;;;;;;;;4897259;29;20033;-21
2021/01/10 01:28:49;;;;;;;2.83;0.60;;;;;;;;;;4896734;29;20052;-21
2021/01/10 01:31:16;;;;;;;0.70;0.70;;;;;;;;;;4897199;29;20392;-21
2021/01/10 01:33:42;;;;;;;0.88;0.77;;;;;;;;;;4897247;29;20088;-21
2021/01/10 01:36:27;;;;;;;1.98;1.30;;;;;;;;;;4897378;29;20056;-22
2021/01/10 01:38:54;;;;;;;1.38;1.15;;;;;;;;;;4897122;29;20380;-21
2021/01/10 01:41:20;;;;;;;2.33;1.67;;;;;;;;;;4897138;29;20036;-21
2021/01/10 01:43:45;;;;;;;2.67;1.90;;;;;;;;;;4896819;29;20039;-21
2021/01/10 01:46:11;;;;;;;2.25;1.33;;;;;;;;;;4897010;29;20036;-22
2021/01/10 01:48:38;;;;;;;2.17;1.60;;;;;;;;;;4880380;29;20064;-22
2021/01/10 01:51:04;;;;;;;3.08;2.08;;;;;;;;;;4897186;29;20473;-22
2021/01/10 01:53:30;;;;;;;2.92;1.85;;;;;;;;;;4897270;29;20092;-22
2021/01/10 01:55:56;;;;;;;2.22;1.30;;;;;;;;;;4899718;29;20403;-22
2021/01/10 01:58:22;;;;;;;1.08;0.98;;;;;;;;;;4900944;29;20033;-23
2021/01/10 02:00:48;;;;;;;2.35;1.60;;;;;;;;;;4900508;29;20528;-22
2021/01/10 02:03:34;;;;;;;0.20;0.20;;;;;;;;;;4883642;29;20032;-21
2021/01/10 02:06:05;;;;;;;6.07;1.30;;;;;;;;;;4900301;29;20079;-21
2021/01/10 02:08:33;;;;;;;0.10;0.10;;;;;;;;;;4900788;29;20085;-21
2021/01/10 02:10:59;;;;;;;1.55;1.35;;;;;;;;;;4900407;29;20037;-22
2021/01/10 02:13:26;;;;;;;2.20;1.20;;;;;;;;;;4900426;29;20029;-22
2021/01/10 02:15:52;;;;;;;1.40;1.05;;;;;;;;;;4900312;29;20040;-22
2021/01/10 02:18:18;;;;;;;5.72;2.85;;;;;;;;;;4900283;29;20472;-22
2021/01/10 02:20:44;;;;;;;1.08;0.68;;;;;;;;;;4883635;29;20036;-21
2021/01/10 02:23:12;;;;;;;1.13;0.80;;;;;;;;;;4900631;29;20403;-21
2021/01/10 02:25:41;;;;;;;2.85;1.52;;;;;;;;;;4899952;29;20144;-22
2021/01/10 02:28:09;;;;;;;4.43;2.40;;;;;;;;;;4899982;29;20555;-22
2021/01/10 02:30:36;;;;;;;4.40;2.35;;;;;;;;;;4900333;29;20043;-22
2021/01/10 02:33:06;;;;;;;3.10;2.42;;;;;;;;;;4900074;29;20021;-21
2021/01/10 02:35:33;;;;;;;1.20;0.70;;;;;;;;;;4900087;29;20392;-21
2021/01/10 02:38:01;;;;;;;3.83;3.20;;;;;;;;;;4883086;29;20173;-21
2021/01/10 02:40:35;;;;;;;3.75;2.72;;;;;;;;;;4882953;29;20040;-21
2021/01/10 02:43:10;;;;;;;5.47;2.38;;;;;;;;;;4900099;29;20048;-21
2021/01/10 02:45:40;;;;;;;3.33;2.28;;;;;;;;;;4899782;29;20172;-21
2021/01/10 02:48:06;;;;;;;2.03;1.35;;;;;;;;;;4899830;29;20065;-21
2021/01/10 02:50:31;;;;;;;3.78;2.17;;;;;;;;;;4899638;29;20068;-22
2021/01/10 02:52:56;;;;;;;4.07;2.47;;;;;;;;;;4899912;29;20037;-21
2021/01/10 02:55:22;;;;;;;5.65;3.45;;;;;;;;;;4899156;29;20029;-22
2021/01/10 02:57:51;;;;;;;3.70;2.13;;;;;;;;;;4899844;29;20507;-22
2021/01/10 03:00:17;;;;;;;3.92;2.35;;;;;;;;;;4899462;29;20510;-21
2021/01/10 03:02:43;;;;;;;1.23;1.10;;;;;;;;;;4899802;29;20040;-22
2021/01/10 03:05:09;;;;;;;3.92;2.88;;;;;;;;;;4899641;29;20429;-21
2021/01/10 03:07:35;;;;;;;2.28;0.93;;;;;;;;;;4898376;29;20028;-21
2021/01/10 03:10:01;;;;;;;2.33;1.45;;;;;;;;;;4899457;29;20033;-21
2021/01/10 03:12:27;;;;;;;2.65;1.40;;;;;;;;;;4899434;29;20032;-21
2021/01/10 03:14:53;;;;;;;3.65;2.88;;;;;;;;;;4899506;29;20032;-21
2021/01/10 03:17:26;;;;;;;1.88;1.42;;;;;;;;;;4899281;29;20040;-21
2021/01/10 03:19:51;;;;;;;3.30;2.60;;;;;;;;;;4899199;29;20029;-22
2021/01/10 03:22:17;;;;;;;4.15;2.30;;;;;;;;;;4899484;29;20400;-21
2021/01/10 03:24:42;;;;;;;5.30;1.95;;;;;;;;;;4899083;29;20400;-21
2021/01/10 03:27:07;;;;;;;2.95;1.70;;;;;;;;;;4899184;29;20020;-22
2021/01/10 03:29:33;;;;;;;4.20;2.20;;;;;;;;;;4898894;29;20095;-21
2021/01/10 03:31:58;;;;;;;5.20;3.20;;;;;;;;;;4898921;29;20384;-22
2021/01/10 03:34:23;;;;;;;2.92;2.15;;;;;;;;;;4899073;29;20036;-21
2021/01/10 03:36:49;;;;;;;2.45;1.65;;;;;;;;;;4898793;29;20048;-21
2021/01/10 03:39:14;;;;;;;6.25;3.13;;;;;;;;;;4898920;29;20036;-21
2021/01/10 03:41:39;;;;;;;4.82;3.05;;;;;;;;;;4898792;29;20084;-22
2021/01/10 03:44:05;;;;;;;5.38;2.85;;;;;;;;;;4899066;29;20564;-22
2021/01/10 03:46:30;;;;;;;3.30;1.83;;;;;;;;;;4898784;29;20146;-22
2021/01/10 03:48:55;;;;;;;5.35;3.50;;;;;;;;;;4898684;29;20112;-21
2021/01/10 03:51:25;;;;;;;1.13;0.75;;;;;;;;;;4898772;29;20598;-22
2021/01/10 03:53:51;;;;;;;6.50;3.55;;;;;;;;;;4881752;29;20036;-21
2021/01/10 03:56:16;;;;;;;3.15;2.58;;;;;;;;;;4898641;29;20457;-22
2021/01/10 03:58:41;;;;;;;4.32;2.92;;;;;;;;;;4881595;29;20033;-22
2021/01/10 04:01:07;;;;;;;4.53;2.63;;;;;;;;;;4898780;29;20360;-23
2021/01/10 04:03:32;;;;;;;7.30;3.13;;;;;;;;;;4898537;29;20092;-21
2021/01/10 04:05:57;;;;;;;2.10;1.10;;;;;;;;;;4881374;29;20056;-21
2021/01/10 04:08:23;;;;;;;3.33;2.30;;;;;;;;;;4898602;29;20033;-22
2021/01/10 04:10:48;;;;;;;2.60;2.10;;;;;;;;;;4881560;29;20063;-22
2021/01/10 04:13:14;;;;;;;5.40;3.40;;;;;;;;;;4898470;29;20031;-22
2021/01/10 04:15:39;;;;;;;4.70;2.35;;;;;;;;;;4898175;29;20055;-21
2021/01/10 04:18:04;;;;;;;1.33;0.98;;;;;;;;;;4897938;29;20043;-22
2021/01/10 04:20:30;;;;;;;3.05;1.88;;;;;;;;;;4898077;29;20036;-22
2021/01/10 04:22:55;;;;;;;4.85;2.67;;;;;;;;;;4881314;29;20025;-22
2021/01/10 04:25:20;;;;;;;3.15;2.10;;;;;;;;;;4898030;29;20037;-22
2021/01/10 04:27:46;;;;;;;6.80;4.20;;;;;;;;;;4897988;29;20387;-21
2021/01/10 04:30:11;;;;;;;3.42;1.75;;;;;;;;;;4897774;29;20116;-21
2021/01/10 04:32:36;;;;;;;1.90;1.40;;;;;;;;;;4897918;29;20036;-21
2021/01/10 04:35:02;;;;;;;3.45;2.20;;;;;;;;;;4897807;29;20032;-21
2021/01/10 04:37:27;;;;;;;3.05;1.92;;;;;;;;;;4897963;29;20032;-22
2021/01/10 04:39:53;;;;;;;1.83;1.38;;;;;;;;;;4897846;29;20362;-21
2021/01/10 04:42:18;;;;;;;5.38;2.65;;;;;;;;;;4898026;29;20080;-21
2021/01/10 04:44:44;;;;;;;2.35;1.90;;;;;;;;;;4897607;29;20403;-21
2021/01/10 04:47:09;;;;;;;3.25;1.85;;;;;;;;;;4897850;29;20045;-20
2021/01/10 04:49:36;;;;;;;2.25;1.75;;;;;;;;;;4897548;29;20119;-22
2021/01/10 04:52:01;;;;;;;2.58;2.20;;;;;;;;;;4897522;29;20408;-21
2021/01/10 04:54:29;;;;;;;3.97;3.05;;;;;;;;;;4897847;29;20033;-20
2021/01/10 04:56:55;;;;;;;4.13;2.15;;;;;;;;;;4897754;29;20048;-21
2021/01/10 04:59:22;;;;;;;5.10;3.22;;;;;;;;;;4880701;29;20033;-22
2021/01/10 05:01:50;;;;;;;2.90;1.75;;;;;;;;;;4880554;29;20025;-22
2021/01/10 05:04:19;;;;;;;4.68;3.00;;;;;;;;;;4897661;29;20631;-20
2021/01/10 05:06:45;;;;;;;3.30;1.88;;;;;;;;;;4880575;29;20047;-23
2021/01/10 05:09:11;;;;;;;3.42;2.33;;;;;;;;;;4897340;29;20032;-23
2021/01/10 05:11:36;;;;;;;3.03;2.15;;;;;;;;;;4880592;29;20042;-23
2021/01/10 05:14:05;;;;;;;6.13;2.88;;;;;;;;;;4897280;29;20400;-23
2021/01/10 05:16:32;;;;;;;3.15;2.45;;;;;;;;;;4897194;29;20111;-23
2021/01/10 05:18:58;;;;;;;5.18;3.30;;;;;;;;;;4897228;29;20032;-22
2021/01/10 05:21:23;;;;;;;3.70;1.83;;;;;;;;;;4897231;29;20051;-22
2021/01/10 05:23:52;;;;;;;0.52;0.52;;;;;;;;;;4896874;29;20025;-22
2021/01/10 05:26:19;;;;;;;4.15;2.67;;;;;;;;;;4897137;29;20123;-22
2021/01/10 05:28:45;;;;;;;7.32;3.03;;;;;;;;;;4896667;29;20624;-23
2021/01/10 05:31:11;;;;;;;4.88;2.85;;;;;;;;;;4896926;29;20025;-22
2021/01/10 05:33:49;;;;;;;1.60;0.90;;;;;;;;;;4897155;29;20607;-23
2021/01/10 05:36:25;;;;;;;3.67;1.92;;;;;;;;;;4880390;29;20187;-21
2021/01/10 05:38:51;;;;;;;4.40;3.28;;;;;;;;;;4897151;29;20060;-22
2021/01/10 05:41:16;;;;;;;4.10;2.40;;;;;;;;;;4897361;29;20128;-22
2021/01/10 05:44:01;;;;;;;3.33;2.42;;;;;;;;;;4896975;29;20448;-22
2021/01/10 05:46:28;;;;;;;2.83;1.55;;;;;;;;;;4880211;29;20072;-22
2021/01/10 05:48:54;;;;;;;4.45;1.95;;;;;;;;;;4896953;29;20194;-22
2021/01/10 05:51:20;;;;;;;4.85;2.00;;;;;;;;;;4896944;29;20489;-22
2021/01/10 05:53:45;;;;;;;1.58;1.48;;;;;;;;;;4896856;29;20168;-22
2021/01/10 05:56:11;;;;;;;3.47;1.95;;;;;;;;;;4880222;29;20033;-23
2021/01/10 05:58:38;;;;;;;3.90;2.83;;;;;;;;;;4896868;29;20036;-22
2021/01/10 06:01:13;;;;;;;1.90;1.60;;;;;;;;;;4880116;29;20521;-21
2021/01/10 06:03:39;;;;;;;4.63;3.60;;;;;;;;;;4896841;29;20048;-23
2021/01/10 06:06:06;;;;;;;2.33;1.48;;;;;;;;;;4896636;29;20036;-23
2021/01/10 06:08:39;;;;;;;3.72;3.05;;;;;;;;;;4896755;29;20033;-23
2021/01/10 06:11:30;;;;;;;3.28;2.78;;;;;;;;;;4880118;29;20044;-22
2021/01/10 06:13:56;;;;;;;4.70;2.75;;;;;;;;;;4893762;29;20491;-22
2021/01/10 06:16:22;;;;;;;1.45;1.35;;;;;;;;;;4879951;29;20114;-22
2021/01/10 06:18:50;;;;;;;3.22;2.30;;;;;;;;;;4896857;29;20057;-23
2021/01/10 06:21:16;;;;;;;4.25;1.85;;;;;;;;;;4896632;29;20555;-22
2021/01/10 06:23:45;;;;;;;3.95;3.38;;;;;;;;;;4896661;29;20384;-22
2021/01/10 06:26:11;;;;;;;3.50;1.73;;;;;;;;;;4896575;29;20052;-21
2021/01/10 06:28:37;;;;;;;4.10;2.97;;;;;;;;;;4879583;29;20057;-22
2021/01/10 06:31:03;;;;;;;2.65;1.77;;;;;;;;;;4896627;29;20052;-23
2021/01/10 06:33:32;;;;;;;4.03;3.22;;;;;;;;;;4896650;29;20025;-22
2021/01/10 06:36:01;;;;;;;5.38;2.55;;;;;;;;;;4879727;29;20033;-23
2021/01/10 06:38:31;;;;;;;3.53;2.03;;;;;;;;;;4896579;29;20028;-23
2021/01/10 06:41:15;;;;;;;3.28;2.35;;;;;;;;;;4880475;29;20558;-23
2021/01/10 06:43:42;;;;;;;4.50;3.45;;;;;;;;;;4900044;29;20037;-23
2021/01/10 06:46:07;;;;;;;4.65;2.90;;;;;;;;;;4899797;29;20048;-22
2021/01/10 06:48:33;;;;;;;2.42;1.65;;;;;;;;;;4883194;29;20029;-22
2021/01/10 06:51:01;;;;;;;1.33;0.80;;;;;;;;;;4882797;29;20048;-23
2021/01/10 06:53:27;;;;;;;3.85;2.90;;;;;;;;;;4900015;29;20052;-22
2021/01/10 06:55:52;;;;;;;2.25;1.58;;;;;;;;;;4899701;29;20032;-21
2021/01/10 06:58:18;;;;;;;3.63;2.42;;;;;;;;;;4899700;29;20029;-22
2021/01/10 07:00:49;;;;;;;2.30;1.30;;;;;;;;;;4899585;29;20063;-21
2021/01/10 07:03:14;;;;;;;4.65;3.63;;;;;;;;;;4899795;29;20444;-21
2021/01/10 07:06:01;;;;;;;3.22;1.70;;;;;;;;;;4899741;29;20096;-22
2021/01/10 07:08:30;;;;;;;4.97;3.58;;;;;;;;;;4899677;29;20047;-22
2021/01/10 07:10:55;;;;;;;5.85;2.30;;;;;;;;;;4882610;29;20041;-21
2021/01/10 07:13:24;;;;;;;2.15;1.58;;;;;;;;;;4899375;29;20043;-21
2021/01/10 07:16:09;;;;;;;3.22;2.40;;;;;;;;;;4899436;29;20035;-21
2021/01/10 07:18:47;;;;;;;3.67;2.40;;;;;;;;;;4882100;29;20068;-22
2021/01/10 07:21:27;;;;;;;3.10;2.03;;;;;;;;;;4899382;29;20028;-22
2021/01/10 07:23:53;;;;;;;2.25;1.13;;;;;;;;;;4899161;29;20495;-22
2021/01/10 07:26:38;;;;;;;4.10;2.15;;;;;;;;;;4899151;29;20072;-22
2021/01/10 07:29:03;;;;;;;3.40;2.40;;;;;;;;;;4898771;29;20053;-22
2021/01/10 07:31:29;;;;;;;3.13;2.05;;;;;;;;;;4882453;29;20440;-21
2021/01/10 07:34:10;;;;;;;3.08;1.08;;;;;;;;;;4898990;29;20025;-23
2021/01/10 07:36:42;;;;;;;3.35;1.80;;;;;;;;;;4899074;29;20048;-22
2021/01/10 07:39:07;;;;;;;5.03;4.00;;;;;;;;;;4898857;29;20041;-21
2021/01/10 07:41:33;;;;;;;4.05;2.22;;;;;;;;;;4882066;29;20041;-21
2021/01/10 07:43:58;;;;;;;6.03;3.38;;;;;;;;;;4898828;29;20040;-22
2021/01/10 07:46:42;;;;;;;3.85;2.90;;;;;;;;;;4898279;29;20471;-23
2021/01/10 07:49:08;;;;;;;2.92;1.83;;;;;;;;;;4912682;29;20084;-27
2021/01/10 07:51:34;;;;;;;3.80;2.53;;;;;;;;;;4898628;29;20036;-27
2021/01/10 07:54:00;;;;;;;4.05;2.83;;;;;;;;;;4897873;29;20028;-27
2021/01/10 07:56:25;;;;;;;4.57;3.30;;;;;;;;;;4898505;29;20025;-27
2021/01/10 07:59:11;;;;;;;1.88;0.98;;;;;;;;;;4898376;29;20055;-26
2021/01/10 08:02:06;;;;;;;4.35;3.17;;;;;;;;;;4898352;29;20507;-28
2021/01/10 08:04:35;;;;;;;2.83;2.45;;;;;;;;;;4877344;29;20113;-27
2021/01/10 08:07:03;;;;;;;4.47;2.90;;;;;;;;;;4898174;29;20096;-24
2021/01/10 08:09:32;;;;;;;3.95;3.10;;;;;;;;;;4898046;29;20036;-26
2021/01/10 08:12:00;;;;;;;3.05;1.63;;;;;;;;;;4881433;29;20060;-27
2021/01/10 08:14:26;;;;;;;4.18;3.25;;;;;;;;;;4898107;29;20047;-25
2021/01/10 08:16:51;;;;;;;4.00;3.58;;;;;;;;;;4898064;29;20111;-27
2021/01/10 08:19:17;;;;;;;3.67;2.80;;;;;;;;;;4898114;29;20028;-25
2021/01/10 08:21:43;;;;;;;4.00;2.67;;;;;;;;;;4881264;29;20383;-28
2021/01/10 08:24:08;;;;;;;2.78;1.23;;;;;;;;;;4898009;29;20077;-25
2021/01/10 08:26:38;;;;;;;4.22;2.03;;;;;;;;;;4881144;29;20033;-25
2021/01/10 08:29:06;;;;;;;4.57;3.72;;;;;;;;;;4880869;29;20060;-26
2021/01/10 08:31:32;;;;;;;3.72;2.15;;;;;;;;;;4881103;29;20082;-27
2021/01/10 08:34:02;;;;;;;2.45;2.08;;;;;;;;;;4898017;29;20037;-25
2021/01/10 08:36:28;;;;;;;2.75;1.80;;;;;;;;;;4881044;29;20033;-27
2021/01/10 08:38:55;;;;;;;3.88;2.28;;;;;;;;;;4865251;29;20033;-27
2021/01/10 08:41:28;;;;;;;3.40;2.47;;;;;;;;;;4880920;29;20123;-27
2021/01/10 08:44:04;;;;;;;3.17;2.85;;;;;;;;;;4897558;29;20033;-25
2021/01/10 08:46:33;;;;;;;3.28;1.23;;;;;;;;;;4897535;29;20048;-27
2021/01/10 08:48:59;;;;;;;2.20;2.00;;;;;;;;;;4897385;29;20025;-25
2021/01/10 08:51:38;;;;;;;2.72;2.10;;;;;;;;;;4897833;29;20519;-27
2021/01/10 08:54:13;;;;;;;0.85;0.75;;;;;;;;;;4880592;29;20091;-27
2021/01/10 08:56:39;;;;;;;1.60;1.30;;;;;;;;;;4880605;29;20483;-27
2021/01/10 08:59:06;;;;;;;3.25;2.50;;;;;;;;;;4897646;29;20032;-27
2021/01/10 09:01:31;;;;;;;2.45;1.90;;;;;;;;;;4897355;29;20024;-27
2021/01/10 09:03:57;;;;;;;2.50;2.10;;;;;;;;;;4879928;29;20057;-27
2021/01/10 09:06:45;;;;;;;1.25;0.65;;;;;;;;;;4897146;29;20472;-27
2021/01/10 09:09:24;;;;;;;2.85;2.38;;;;;;;;;;4889559;29;20104;-27
2021/01/10 09:12:04;;;;;;;2.75;1.67;;;;;;;;;;4897102;29;20044;-27
2021/01/10 09:14:32;;;;;;;3.63;3.03;;;;;;;;;;4880285;29;20072;-26
2021/01/10 09:17:00;;;;;;;2.53;2.05;;;;;;;;;;4897331;29;20036;-26
2021/01/10 09:19:26;;;;;;;3.00;2.08;;;;;;;;;;4897140;29;20025;-27
2021/01/10 09:21:52;;;;;;;2.25;1.52;;;;;;;;;;4880406;29;20028;-27
2021/01/10 09:24:17;;;;;;;2.42;2.10;;;;;;;;;;4897237;29;20028;-27
2021/01/10 09:26:43;;;;;;;2.58;1.70;;;;;;;;;;4880278;29;20480;-27
2021/01/10 09:29:18;;;;;;;3.28;1.70;;;;;;;;;;4896752;29;20061;-27
2021/01/10 09:31:52;;;;;;;2.27;1.49;;;;;;;;;;4823899;29;10000716;-28
2021/01/10 09:34:23;;;;;;;2.22;1.50;;;;;;;;;;4892777;29;20405;-27
2021/01/10 09:36:49;;;;;;;3.13;2.15;;;;;;;;;;4876581;29;20045;-29
2021/01/10 09:39:15;;;;;;;1.50;1.40;;;;;;;;;;4893568;29;20017;-27
2021/01/10 09:41:53;;;;;;;2.10;1.90;;;;;;;;;;4893384;29;20037;-28
2021/01/10 09:44:19;;;;;;;1.75;1.65;;;;;;;;;;4892679;29;20036;-29
2021/01/10 09:46:53;;;;;;;1.98;1.45;;;;;;;;;;4893394;29;20511;-26
2021/01/10 09:49:18;;;;;;;;;;;;;;;;;;4876797;29;20127;-26
2021/01/10 09:51:50;;;;;;;2.72;2.45;;;;;;;;;;4893125;29;20055;-26
2021/01/10 09:54:19;;;;;;;2.70;2.20;;;;;;;;;;4893189;29;20036;-27
2021/01/10 09:56:46;;;;;;;2.67;1.50;;;;;;;;;;4892918;29;20505;-26
2021/01/10 09:59:30;;;;;;;1.65;1.55;;;;;;;;;;4893136;29;20498;-26
2021/01/10 10:01:56;;;;;;;2.03;1.73;;;;;;;;;;4892975;29;20035;-26
2021/01/10 10:04:28;;;;;;;3.10;2.47;;;;;;;;;;4893272;29;20024;-25
2021/01/10 10:06:54;;;;;;;1.92;1.73;;;;;;;;;;4893037;29;20029;-26
2021/01/10 10:09:19;;;;;;;2.78;2.47;;;;;;;;;;4897166;29;20028;-26
2021/01/10 10:11:45;;;;;;;2.78;1.65;;;;;;;;;;4893185;29;20042;-27
2021/01/10 10:14:10;;;;;;;1.90;0.50;;;;;;;;;;4893468;29;20040;-25
2021/01/10 10:16:36;;;;;;;2.17;1.65;;;;;;;;;;4878387;29;20044;-26
2021/01/10 10:19:02;;;;;;;3.70;2.63;;;;;;;;;;4897174;29;20033;-27
2021/01/10 10:21:28;;;;;;;2.95;2.55;;;;;;;;;;4896611;29;20029;-26
2021/01/10 10:23:53;;;;;;;2.55;2.13;;;;;;;;;;4880013;29;20043;-27
2021/01/10 10:26:19;;;;;;;3.90;2.67;;;;;;;;;;4880349;29;20049;-25
2021/01/10 10:28:44;;;;;;;3.30;2.17;;;;;;;;;;4879709;29;20068;-26
2021/01/10 10:31:13;;;;;;;4.03;2.70;;;;;;;;;;4896727;29;20052;-26
2021/01/10 10:33:38;;;;;;;3.22;2.83;;;;;;;;;;4896394;29;20100;-26
2021/01/10 10:36:04;;;;;;;2.95;2.10;;;;;;;;;;4896605;29;20045;-25
2021/01/10 10:38:31;;;;;;;3.33;2.53;;;;;;;;;;4896310;29;20120;-25
2021/01/10 10:40:56;;;;;;;4.43;2.80;;;;;;;;;;4896408;29;20043;-26
2021/01/10 10:43:22;;;;;;;3.03;2.40;;;;;;;;;;4896697;29;20036;-26
2021/01/10 10:45:47;;;;;;;3.50;1.83;;;;;;;;;;4896232;29;20048;-27
2021/01/10 10:48:13;;;;;;;4.00;2.45;;;;;;;;;;4896536;29;20041;-27
2021/01/10 10:50:38;;;;;;;3.60;2.25;;;;;;;;;;4896734;29;20143;-27
2021/01/10 10:53:05;;;;;;;3.70;2.65;;;;;;;;;;4896419;29;20067;-26
2021/01/10 10:55:30;;;;;;;3.63;2.90;;;;;;;;;;4895910;29;20032;-26
2021/01/10 10:57:56;;;;;;;2.25;1.80;;;;;;;;;;4895755;29;20643;-27
2021/01/10 11:00:22;;;;;;;3.08;2.35;;;;;;;;;;4896080;29;20037;-27
2021/01/10 11:02:47;;;;;;;10.98;4.55;;;;;;;;;;4896197;29;20384;-29
2021/01/10 11:05:13;;;;;;;2.40;2.08;;;;;;;;;;4878766;29;20127;-28
2021/01/10 11:07:38;;;;;;;4.80;2.50;;;;;;;;;;4895409;29;20128;-28
2021/01/10 11:10:04;;;;;;;3.45;2.78;;;;;;;;;;4895943;29;20028;-26
2021/01/10 11:12:32;;;;;;;2.88;2.20;;;;;;;;;;4894368;29;20387;-25
2021/01/10 11:14:58;;;;;;;4.07;3.47;;;;;;;;;;4878939;29;20063;-27
2021/01/10 11:17:23;;;;;;;5.30;4.18;;;;;;;;;;4896012;29;20112;-27
2021/01/10 11:19:48;;;;;;;1.58;1.35;;;;;;;;;;4895215;29;20468;-27
2021/01/10 11:22:14;;;;;;;2.30;1.65;;;;;;;;;;4878297;29;20040;-27
2021/01/10 11:24:41;;;;;;;3.75;2.40;;;;;;;;;;4895770;29;20055;-27
2021/01/10 11:27:07;;;;;;;1.77;1.08;;;;;;;;;;4894646;29;20085;-26
2021/01/10 11:29:32;;;;;;;3.13;2.83;;;;;;;;;;4895096;29;20052;-25
2021/01/10 11:31:57;;;;;;;3.60;2.22;;;;;;;;;;4895481;29;20692;-27
2021/01/10 11:34:23;;;;;;;3.17;2.75;;;;;;;;;;4895280;29;20527;-26
2021/01/10 11:36:50;;;;;;;3.35;2.85;;;;;;;;;;4895169;29;20039;-27
2021/01/10 11:39:17;;;;;;;2.47;2.28;;;;;;;;;;4878367;29;20065;-31
2021/01/10 11:41:55;;;;;;;2.63;2.08;;;;;;;;;;4895232;29;20037;-27
2021/01/10 11:44:21;;;;;;;1.67;1.58;;;;;;;;;;4877848;29;20036;-27
2021/01/10 11:46:48;;;;;;;1.52;0.98;;;;;;;;;;4895093;29;20045;-26
2021/01/10 11:49:13;;;;;;;1.23;1.13;;;;;;;;;;4895010;29;20021;-26
2021/01/10 11:51:39;;;;;;;3.85;1.50;;;;;;;;;;4895349;29;20455;-26
2021/01/10 11:54:05;;;;;;;2.38;1.95;;;;;;;;;;4895396;29;20028;-27
2021/01/10 11:56:30;;;;;;;3.10;2.53;;;;;;;;;;4894580;29;20036;-26
2021/01/10 11:58:56;;;;;;;1.83;1.15;;;;;;;;;;4894848;29;20552;-27
2021/01/10 12:01:21;;;;;;;4.07;2.55;;;;;;;;;;4878256;29;20112;-27
2021/01/10 12:03:51;;;;;;;3.63;2.65;;;;;;;;;;4878266;29;20036;-27
2021/01/10 12:06:20;;;;;;;1.17;0.80;;;;;;;;;;4893447;29;20145;-27
2021/01/10 12:08:45;;;;;;;2.58;1.95;;;;;;;;;;4894043;29;20036;-25
2021/01/10 12:11:14;;;;;;;2.97;2.10;;;;;;;;;;4895052;29;20040;-26
2021/01/10 12:13:40;;;;;;;3.30;2.85;;;;;;;;;;4894226;29;20479;-26
2021/01/10 12:16:05;;;;;;;4.15;3.42;;;;;;;;;;4893708;29;20047;-27
2021/01/10 12:18:31;;;;;;;2.92;1.90;;;;;;;;;;4894845;29;20438;-25
2021/01/10 12:20:56;;;;;;;4.30;2.47;;;;;;;;;;4894535;29;20044;-27
2021/01/10 12:23:24;;;;;;;2.22;1.67;;;;;;;;;;4878044;29;20032;-27
2021/01/10 12:25:50;;;;;;;2.38;1.88;;;;;;;;;;4894725;29;20041;-27
2021/01/10 12:28:15;;;;;;;5.13;2.40;;;;;;;;;;4894436;29;20033;-28
2021/01/10 12:30:41;;;;;;;1.85;1.70;;;;;;;;;;4894260;29;20108;-27
2021/01/10 12:33:06;;;;;;;3.28;1.80;;;;;;;;;;4877435;29;20032;-26
2021/01/10 12:35:31;;;;;;;3.42;2.10;;;;;;;;;;4877856;29;20480;-25
2021/01/10 12:37:57;;;;;;;1.88;1.27;;;;;;;;;;4894515;29;20103;-27
2021/01/10 12:40:22;;;;;;;3.00;1.75;;;;;;;;;;4894127;29;20572;-26
2021/01/10 12:42:48;;;;;;;4.97;2.95;;;;;;;;;;4894423;29;20096;-27
2021/01/10 12:45:14;;;;;;;5.38;1.20;;;;;;;;;;4870233;29;20492;-27
2021/01/10 12:47:40;;;;;;;3.45;2.65;;;;;;;;;;4894244;29;20028;-26
2021/01/10 12:50:06;;;;;;;4.00;2.67;;;;;;;;;;4894317;29;20452;-27
2021/01/10 12:52:32;;;;;;;4.13;1.20;;;;;;;;;;4894063;29;20037;-27
2021/01/10 12:54:57;;;;;;;4.65;1.85;;;;;;;;;;4893796;29;20033;-27
2021/01/10 12:57:26;;;;;;;3.92;2.75;;;;;;;;;;4893466;29;20056;-26
2021/01/10 12:59:51;;;;;;;3.25;2.85;;;;;;;;;;4892009;29;20132;-27
2021/01/10 13:02:16;;;;;;;3.95;2.85;;;;;;;;;;4893853;29;20107;-27
2021/01/10 13:04:42;;;;;;;3.58;2.15;;;;;;;;;;4894002;29;20041;-25
2021/01/10 13:07:07;;;;;;;3.13;2.30;;;;;;;;;;4893994;29;20025;-26
2021/01/10 13:09:35;;;;;;;1.90;1.05;;;;;;;;;;4893802;29;20028;-26
2021/01/10 13:12:01;;;;;;;3.58;2.80;;;;;;;;;;4893941;29;20139;-26
2021/01/10 13:14:27;;;;;;;3.00;2.70;;;;;;;;;;4893634;29;20124;-27
2021/01/10 13:16:52;;;;;;;2.60;1.98;;;;;;;;;;4893810;29;20043;-26
2021/01/10 13:19:18;;;;;;;0.95;0.77;;;;;;;;;;4893858;29;20028;-28
2021/01/10 13:21:44;;;;;;;36.35;12.63;;;;;;;;;;4893169;29;20120;-27
2021/01/10 13:24:09;;;;;;;3.25;2.88;;;;;;;;;;4893680;29;20119;-28
2021/01/10 13:26:35;;;;;;;3.40;2.95;;;;;;;;;;4894004;29;20108;-28
2021/01/10 13:29:00;;;;;;;1.73;1.42;;;;;;;;;;4876654;29;20075;-28
2021/01/10 13:31:26;;;;;;;3.35;1.90;;;;;;;;;;4893824;29;20045;-28
2021/01/10 13:33:51;;;;;;;2.10;1.83;;;;;;;;;;4893625;29;20037;-27
2021/01/10 13:36:20;;;;;;;2.90;2.08;;;;;;;;;;4893945;29;20029;-27
2021/01/10 13:38:46;;;;;;;4.28;2.55;;;;;;;;;;4894005;29;20041;-28
2021/01/10 13:41:15;;;;;;;3.30;1.80;;;;;;;;;;4876791;29;20080;-28
2021/01/10 13:43:41;;;;;;;3.30;2.58;;;;;;;;;;4876516;29;20064;-25
2021/01/10 13:46:10;;;;;;;2.95;2.55;;;;;;;;;;4892998;29;20975;-26
2021/01/10 13:48:37;;;;;;;2.63;2.17;;;;;;;;;;4876209;29;20056;-27
2021/01/10 13:51:02;;;;;;;3.63;2.33;;;;;;;;;;4877677;29;20025;-28
2021/01/10 13:53:28;;;;;;;3.85;2.90;;;;;;;;;;4897665;29;20033;-27
2021/01/10 13:55:54;;;;;;;2.20;1.75;;;;;;;;;;4897283;29;20079;-27
2021/01/10 13:58:19;;;;;;;1.38;0.85;;;;;;;;;;4880451;29;20060;-27
2021/01/10 14:00:49;;;;;;;3.25;1.92;;;;;;;;;;4897392;29;20033;-27
2021/01/10 14:03:14;;;;;;;0.60;0.60;;;;;;;;;;4897167;29;20084;-27
2021/01/10 14:05:40;;;;;;;7.60;4.03;;;;;;;;;;4880165;29;20044;-26
2021/01/10 14:08:05;;;;;;;1.55;1.45;;;;;;;;;;4879882;29;20031;-26
2021/01/10 14:10:31;;;;;;;2.28;1.80;;;;;;;;;;4879956;29;20488;-28
2021/01/10 14:12:56;;;;;;;3.40;2.78;;;;;;;;;;4897042;29;20530;-28
2021/01/10 14:15:22;;;;;;;3.85;3.22;;;;;;;;;;4897134;29;20396;-28
2021/01/10 14:17:47;;;;;;;3.00;2.15;;;;;;;;;;4897029;29;20028;-28
2021/01/10 14:20:13;;;;;;;3.28;2.67;;;;;;;;;;4896798;29;20076;-27
2021/01/10 14:22:38;;;;;;;0.70;0.70;;;;;;;;;;4897292;29;20104;-29
2021/01/10 14:25:04;;;;;;;5.43;1.42;;;;;;;;;;4896831;29;20045;-27
2021/01/10 14:27:30;;;;;;;1.10;0.77;;;;;;;;;;4897091;29;20038;-28
2021/01/10 14:29:56;;;;;;;0.40;0.40;;;;;;;;;;4879907;29;20052;-28
2021/01/10 14:32:21;;;;;;;3.58;1.85;;;;;;;;;;4894824;29;20396;-29
2021/01/10 14:34:46;;;;;;;2.45;2.25;;;;;;;;;;4896892;29;20083;-28
2021/01/10 14:37:12;;;;;;;2.35;1.35;;;;;;;;;;4879626;29;20084;-28
2021/01/10 14:39:38;;;;;;;2.70;2.17;;;;;;;;;;4896951;29;20540;-28
2021/01/10 14:42:04;;;;;;;2.13;1.73;;;;;;;;;;4896659;29;20751;-27
2021/01/10 14:44:30;;;;;;;3.38;1.98;;;;;;;;;;4895659;29;20040;-28